Time;durP1;ratioP1;P1;durP2;ratioP2;P2;SDS_P1;SDS_P2;PMS_P1;PMS_P2;Temp;Humidity;BMP_temperature;BMP_pressure;BME280_temperature;BME280_humidity;BME280_pressure;Samples;Min_cycle;Max_cycle;Signal;HPM_P1;HPM_P2
2022/11/27 00:01:36;;;;;;;23.63;21.13;;;;;;;2.34;70.72;95842.50;5016454;28;20191;-69
2022/11/27 00:04:06;;;;;;;26.45;22.63;;;;;;;2.38;70.45;95853.66;5016255;28;20199;-69
2022/11/27 00:06:37;;;;;;;25.75;22.77;;;;;;;2.37;69.90;95852.84;5016177;28;20191;-69
2022/11/27 00:09:08;;;;;;;24.27;21.08;;;;;;;2.38;70.08;95856.38;5016984;28;20184;-70
2022/11/27 00:11:38;;;;;;;21.42;19.27;;;;;;;2.39;70.16;95858.78;5033004;28;20555;-70
2022/11/27 00:14:06;;;;;;;17.67;15.98;;;;;;;2.38;70.03;95849.00;5016628;28;20213;-69
2022/11/27 00:16:36;;;;;;;16.90;15.40;;;;;;;2.39;69.62;95852.53;5031481;28;20187;-69
2022/11/27 00:19:04;;;;;;;17.25;15.55;;;;;;;2.35;70.37;95846.03;5015219;28;20210;-69
2022/11/27 00:21:34;;;;;;;17.80;16.10;;;;;;;2.30;70.25;95855.06;5014986;28;20559;-69
2022/11/27 00:24:05;;;;;;;17.25;15.75;;;;;;;2.28;70.31;95857.22;5016084;28;20202;-69
2022/11/27 00:26:35;;;;;;;20.63;18.42;;;;;;;2.30;70.53;95857.78;5015493;28;20207;-70
2022/11/27 00:29:03;;;;;;;21.40;19.30;;;;;;;2.33;70.86;95859.13;5016195;28;20195;-70
2022/11/27 00:31:36;;;;;;;22.17;19.88;;;;;;;2.30;70.54;95865.13;5015886;28;20222;-69
2022/11/27 00:34:06;;;;;;;23.05;20.25;;;;;;;2.26;70.63;95862.16;5015664;28;20198;-70
2022/11/27 00:36:35;;;;;;;24.27;21.67;;;;;;;2.20;70.34;95870.63;5015601;28;20211;-69
2022/11/27 00:39:04;;;;;;;23.25;20.85;;;;;;;2.17;70.36;95875.53;5016074;28;20195;-69
2022/11/27 00:41:35;;;;;;;24.83;20.90;;;;;;;2.20;70.32;95873.34;5015682;28;20241;-70
2022/11/27 00:44:04;;;;;;;23.15;20.85;;;;;;;2.20;70.52;95870.63;5015559;28;20203;-70
2022/11/27 00:46:33;;;;;;;22.83;20.42;;;;;;;2.23;70.78;95879.03;5015109;28;20199;-70
2022/11/27 00:49:05;;;;;;;23.10;20.80;;;;;;;2.23;71.00;95876.31;5032431;28;20202;-70
2022/11/27 00:51:35;;;;;;;22.20;20.20;;;;;;;2.15;70.78;95877.72;5015033;28;20281;-69
2022/11/27 00:54:04;;;;;;;23.20;21.10;;;;;;;2.11;71.75;95881.28;5015148;28;20317;-69
2022/11/27 00:56:35;;;;;;;22.67;20.52;;;;;;;2.14;71.52;95886.16;5015005;28;20211;-69
2022/11/27 00:59:03;;;;;;;22.00;19.90;;;;;;;2.17;71.71;95880.97;5015805;28;20261;-69
2022/11/27 01:01:34;;;;;;;21.90;19.90;;;;;;;2.22;71.96;95882.88;5014876;28;20210;-69
2022/11/27 01:04:05;;;;;;;22.33;20.15;;;;;;;2.26;72.47;95878.50;5015370;28;20600;-69
2022/11/27 01:06:33;;;;;;;23.08;20.88;;;;;;;2.24;71.91;95869.78;5015053;28;20198;-69
2022/11/27 01:09:01;;;;;;;23.80;21.45;;;;;;;2.17;72.00;95870.06;5015384;28;20207;-70
2022/11/27 01:11:31;;;;;;;22.63;20.42;;;;;;;2.14;72.60;95872.53;5015129;28;20230;-70
2022/11/27 01:13:59;;;;;;;23.05;20.77;;;;;;;2.19;72.52;95869.00;5014725;28;20202;-70
2022/11/27 01:16:28;;;;;;;22.23;20.13;;;;;;;2.24;72.77;95868.97;5014909;28;20218;-70
2022/11/27 01:18:57;;;;;;;22.65;20.48;;;;;;;2.25;72.32;95855.09;5031682;28;20532;-70
2022/11/27 01:21:31;;;;;;;22.40;20.10;;;;;;;2.29;72.07;95858.06;5023582;28;20226;-70
2022/11/27 01:24:01;;;;;;;22.58;20.48;;;;;;;2.28;71.78;95859.94;5018626;28;20201;-70
2022/11/27 01:26:29;;;;;;;22.40;20.30;;;;;;;2.30;72.87;95857.78;5035104;28;20194;-70
2022/11/27 01:28:58;;;;;;;23.88;21.67;;;;;;;2.32;72.89;95855.56;5017935;28;20202;-69
2022/11/27 01:31:27;;;;;;;24.13;21.73;;;;;;;2.34;72.27;95849.84;5018825;28;20222;-70
2022/11/27 01:33:57;;;;;;;23.85;21.60;;;;;;;2.38;72.16;95845.47;5018626;28;20195;-70
2022/11/27 01:36:24;;;;;;;23.70;21.35;;;;;;;2.38;72.45;95851.72;5018644;28;20234;-69
2022/11/27 01:38:54;;;;;;;22.45;20.35;;;;;;;2.39;72.83;95847.09;5018969;28;20211;-69
2022/11/27 01:41:24;;;;;;;24.50;21.92;;;;;;;2.36;72.48;95843.06;5018119;28;20293;-69
2022/11/27 01:43:55;;;;;;;24.75;22.05;;;;;;;2.34;72.17;95838.97;5018203;28;20340;-69
2022/11/27 01:46:35;;;;;;;24.58;22.17;;;;;;;2.24;72.07;95839.84;5034371;28;20195;-69
2022/11/27 01:49:20;;;;;;;26.10;23.30;;;;;;;2.15;71.96;95836.09;5002196;28;20305;-69
2022/11/27 01:51:52;;;;;;;26.30;23.65;;;;;;;2.14;72.61;95832.56;5020968;28;20214;-69
2022/11/27 01:54:29;;;;;;;29.98;26.73;;;;;;;2.14;72.28;95829.00;5021143;28;20217;-69
2022/11/27 01:57:00;;;;;;;32.83;28.13;;;;;;;2.13;72.46;95830.09;5021331;28;20201;-69
2022/11/27 01:59:29;;;;;;;34.60;29.88;;;;;;;2.00;71.79;95834.28;5021600;28;20198;-69
2022/11/27 02:01:57;;;;;;;32.00;28.58;;;;;;;1.92;72.11;95835.66;5021829;28;20203;-69
2022/11/27 02:04:24;;;;;;;32.85;29.35;;;;;;;1.82;72.15;95838.44;5039490;28;20191;-69
2022/11/27 02:06:51;;;;;;;30.92;28.02;;;;;;;1.91;73.15;95833.22;5023557;28;20259;-69
2022/11/27 02:09:19;;;;;;;30.85;28.00;;;;;;;1.94;73.13;95835.38;5024112;28;20541;-69
2022/11/27 02:11:56;;;;;;;30.65;27.85;;;;;;;1.99;72.58;95838.06;5023571;28;20229;-69
2022/11/27 02:14:27;;;;;;;31.05;28.05;;;;;;;1.99;73.53;95835.34;5023009;28;20206;-69
2022/11/27 02:16:58;;;;;;;28.70;25.85;;;;;;;2.04;73.82;95837.25;5024406;28;20638;-69
2022/11/27 02:19:37;;;;;;;27.95;25.45;;;;;;;2.09;73.57;95837.22;5024821;28;20607;-69
2022/11/27 02:22:11;;;;;;;27.38;24.83;;;;;;;2.18;73.71;95835.53;5019938;28;20230;-69
2022/11/27 02:24:50;;;;;;;27.77;25.27;;;;;;;2.16;73.45;95835.81;5034582;28;20206;-69
2022/11/27 02:27:52;;;;;;;26.70;24.20;;;;;;;2.23;73.98;95840.94;5017281;28;20540;-69
2022/11/27 02:30:20;;;;;;;27.42;24.88;;;;;;;2.29;74.10;95839.81;5015771;28;20202;-69
2022/11/27 02:32:53;;;;;;;26.45;24.08;;;;;;;2.30;73.51;95841.44;5016808;28;20215;-69
2022/11/27 02:35:26;;;;;;;26.17;23.73;;;;;;;2.34;74.02;95830.81;5034432;28;20191;-69
2022/11/27 02:37:57;;;;;;;24.90;22.60;;;;;;;2.42;73.83;95847.34;5017914;28;20207;-69
2022/11/27 02:40:28;;;;;;;26.55;24.05;;;;;;;2.48;73.54;95839.16;5017487;28;20215;-69
2022/11/27 02:43:00;;;;;;;26.52;24.05;;;;;;;2.48;73.66;95841.88;5017992;28;20289;-69
2022/11/27 02:45:33;;;;;;;26.20;23.92;;;;;;;2.42;73.43;95847.34;5017995;28;20203;-68
2022/11/27 02:48:00;;;;;;;25.20;22.83;;;;;;;2.46;74.11;95852.22;5018027;28;20214;-69
2022/11/27 02:50:29;;;;;;;25.75;23.35;;;;;;;2.46;73.63;95854.94;5017500;28;20218;-69
2022/11/27 02:53:03;;;;;;;25.60;23.20;;;;;;;2.46;73.77;95844.88;5017176;28;20230;-69
2022/11/27 02:55:34;;;;;;;24.23;21.92;;;;;;;2.36;73.60;95842.22;5017679;28;20257;-69
2022/11/27 02:58:04;;;;;;;25.23;22.92;;;;;;;2.36;74.44;95844.94;5018180;28;20268;-69
2022/11/27 03:00:35;;;;;;;24.25;21.95;;;;;;;2.35;74.44;95844.13;5035737;28;20207;-69
2022/11/27 03:03:06;;;;;;;25.55;23.25;;;;;;;2.36;74.36;95845.78;5018626;28;20206;-69
2022/11/27 03:05:37;;;;;;;25.38;23.00;;;;;;;2.45;74.46;95845.16;5016341;28;20207;-69
2022/11/27 03:08:06;;;;;;;24.50;22.23;;;;;;;2.47;74.36;95854.69;5016480;28;20206;-69
2022/11/27 03:10:40;;;;;;;23.88;21.77;;;;;;;2.49;73.75;95854.41;5016033;28;20596;-69
2022/11/27 03:13:08;;;;;;;25.02;22.73;;;;;;;2.51;73.79;95854.94;5016675;28;20218;-70
2022/11/27 03:15:41;;;;;;;26.20;23.70;;;;;;;2.47;73.61;95851.97;5016850;28;20195;-69
2022/11/27 03:18:14;;;;;;;24.50;22.17;;;;;;;2.46;74.60;95855.75;5016766;28;20643;-69
2022/11/27 03:20:45;;;;;;;25.70;23.17;;;;;;;2.47;74.41;95865.59;5033856;28;20211;-69
2022/11/27 03:23:15;;;;;;;24.85;22.40;;;;;;;2.46;74.22;95863.13;5019875;28;20198;-69
2022/11/27 03:25:43;;;;;;;24.17;21.88;;;;;;;2.46;74.16;95865.84;5019708;28;20249;-69
2022/11/27 03:28:11;;;;;;;23.40;21.17;;;;;;;2.45;74.60;95861.50;5019558;28;20611;-68
2022/11/27 03:30:41;;;;;;;24.88;22.48;;;;;;;2.47;74.91;95862.03;5019323;28;20202;-68
2022/11/27 03:33:09;;;;;;;25.10;22.70;;;;;;;2.53;74.16;95863.63;5018998;28;20662;-68
2022/11/27 03:35:37;;;;;;;24.20;22.00;;;;;;;2.53;74.29;95856.25;5019187;28;20206;-68
2022/11/27 03:38:05;;;;;;;24.63;22.42;;;;;;;2.56;74.09;95861.16;5019229;28;20201;-68
2022/11/27 03:40:40;;;;;;;22.63;20.52;;;;;;;2.59;74.98;95862.50;5019916;28;20552;-69
2022/11/27 03:43:14;;;;;;;20.98;18.98;;;;;;;2.63;74.16;95864.38;5019525;28;20201;-68
2022/11/27 03:45:52;;;;;;;20.45;18.55;;;;;;;2.67;74.07;95853.72;5019656;28;20280;-68
2022/11/27 03:48:27;;;;;;;19.77;17.85;;;;;;;2.69;74.00;95859.72;5020447;28;20213;-69
2022/11/27 03:51:03;;;;;;;21.02;19.13;;;;;;;2.66;74.03;95863.00;5036741;28;20201;-68
2022/11/27 03:53:38;;;;;;;18.88;17.25;;;;;;;2.70;74.06;95852.34;5018988;28;20639;-68
2022/11/27 03:56:10;;;;;;;19.42;17.70;;;;;;;2.72;73.91;95856.41;5019261;28;20205;-68
2022/11/27 03:58:42;;;;;;;17.75;16.15;;;;;;;2.73;73.73;95858.03;5019752;28;20224;-68
2022/11/27 04:01:13;;;;;;;17.90;16.33;;;;;;;2.74;73.65;95848.75;5021573;28;20201;-69
2022/11/27 04:03:42;;;;;;;18.63;16.95;;;;;;;2.70;73.32;95842.25;5039082;28;20190;-69
2022/11/27 04:06:10;;;;;;;18.65;16.95;;;;;;;2.70;73.73;95845.00;5039141;28;20187;-69
2022/11/27 04:08:40;;;;;;;18.15;16.45;;;;;;;2.74;74.01;95856.13;5021622;28;20210;-69
2022/11/27 04:11:09;;;;;;;18.15;16.55;;;;;;;2.75;73.97;95850.38;5021020;28;20199;-69
2022/11/27 04:13:36;;;;;;;18.02;16.42;;;;;;;2.75;73.79;95844.13;5020069;28;20226;-69
2022/11/27 04:16:05;;;;;;;19.92;18.13;;;;;;;2.73;73.83;95840.88;5020070;28;20194;-69
2022/11/27 04:18:39;;;;;;;18.85;17.15;;;;;;;2.71;73.97;95834.91;5020081;28;20213;-69
2022/11/27 04:21:07;;;;;;;19.63;17.83;;;;;;;2.71;73.62;95837.63;5016020;28;20242;-69
2022/11/27 04:23:36;;;;;;;19.48;17.75;;;;;;;2.74;73.81;95831.59;5017505;28;20191;-69
2022/11/27 04:26:06;;;;;;;19.33;17.52;;;;;;;2.73;73.46;95830.81;5033155;28;20206;-69
2022/11/27 04:28:35;;;;;;;18.60;16.92;;;;;;;2.72;73.92;95839.25;5017629;28;20183;-69
2022/11/27 04:31:04;;;;;;;19.02;17.33;;;;;;;2.72;73.84;95834.59;5032975;28;20262;-69
2022/11/27 04:33:39;;;;;;;19.50;17.70;;;;;;;2.72;74.25;95834.59;5016651;28;20211;-69
2022/11/27 04:36:08;;;;;;;19.50;17.73;;;;;;;2.73;74.36;95847.16;5017467;28;20183;-69
2022/11/27 04:38:37;;;;;;;20.08;18.17;;;;;;;2.75;73.92;95847.66;5018001;28;20626;-69
2022/11/27 04:41:05;;;;;;;19.40;17.60;;;;;;;2.75;73.97;95855.03;5017474;28;20199;-69
2022/11/27 04:43:35;;;;;;;18.60;17.00;;;;;;;2.69;73.67;95857.00;5016822;28;20213;-69
2022/11/27 04:46:03;;;;;;;19.90;18.10;;;;;;;2.68;74.58;95859.97;5017403;28;20195;-69
2022/11/27 04:48:31;;;;;;;19.42;17.63;;;;;;;2.68;74.19;95858.06;5016677;28;20199;-69
2022/11/27 04:51:00;;;;;;;19.10;17.38;;;;;;;2.73;74.42;95855.31;5016071;28;20205;-69
2022/11/27 04:53:29;;;;;;;19.73;17.88;;;;;;;2.73;73.74;95858.03;5016848;28;20632;-69
2022/11/27 04:55:57;;;;;;;20.50;18.60;;;;;;;2.71;73.81;95856.69;5016218;28;20638;-69
2022/11/27 04:58:25;;;;;;;19.45;17.65;;;;;;;2.69;74.22;95858.88;5016158;28;20203;-69
2022/11/27 05:00:53;;;;;;;19.52;17.83;;;;;;;2.67;73.88;95855.63;5016030;28;20207;-69
2022/11/27 05:03:21;;;;;;;21.58;19.58;;;;;;;2.66;74.43;95863.00;5015682;28;20206;-69
2022/11/27 05:05:55;;;;;;;21.13;19.13;;;;;;;2.68;74.23;95858.06;5015896;28;20187;-69
2022/11/27 05:08:25;;;;;;;20.58;18.77;;;;;;;2.72;73.89;95850.94;5016879;28;20209;-69
2022/11/27 05:11:06;;;;;;;22.38;20.23;;;;;;;2.74;73.84;95853.41;5016756;28;20207;-69
2022/11/27 05:13:34;;;;;;;22.55;20.48;;;;;;;2.75;74.21;95860.47;5015755;28;20230;-69
2022/11/27 05:16:01;;;;;;;21.35;19.30;;;;;;;2.76;74.60;95862.09;5015797;28;20259;-69
2022/11/27 05:18:29;;;;;;;21.52;19.52;;;;;;;2.77;74.01;95866.47;5017019;28;20203;-69
2022/11/27 05:20:58;;;;;;;20.15;18.33;;;;;;;2.76;74.00;95849.31;5019878;28;20656;-69
2022/11/27 05:23:28;;;;;;;21.00;19.00;;;;;;;2.78;74.25;95862.63;5020141;28;20203;-69
2022/11/27 05:25:57;;;;;;;20.73;18.83;;;;;;;2.74;73.88;95867.03;5038146;28;20206;-69
2022/11/27 05:28:25;;;;;;;21.77;19.77;;;;;;;2.70;73.76;95865.97;5023310;28;20229;-69
2022/11/27 05:30:53;;;;;;;21.67;19.48;;;;;;;2.69;73.86;95864.31;5024031;28;20212;-69
2022/11/27 05:33:21;;;;;;;21.90;19.83;;;;;;;2.67;74.20;95870.06;5023567;28;20221;-69
2022/11/27 05:35:49;;;;;;;21.35;19.35;;;;;;;2.70;74.71;95871.41;5023571;28;20202;-69
2022/11/27 05:38:17;;;;;;;21.52;19.52;;;;;;;2.73;73.94;95863.50;5040853;28;20194;-69
2022/11/27 05:40:46;;;;;;;22.75;20.55;;;;;;;2.75;74.69;95864.00;5023114;28;20205;-68
2022/11/27 05:43:14;;;;;;;22.85;20.65;;;;;;;2.79;74.00;95873.22;5021598;28;20653;-68
2022/11/27 05:45:42;;;;;;;19.98;18.15;;;;;;;2.79;74.38;95873.22;5021627;28;20217;-68
2022/11/27 05:48:10;;;;;;;19.90;18.02;;;;;;;2.80;74.25;95876.78;5021629;28;20535;-68
2022/11/27 05:50:37;;;;;;;20.63;18.73;;;;;;;2.77;74.27;95871.91;5021130;28;20638;-68
2022/11/27 05:53:05;;;;;;;20.77;18.88;;;;;;;2.78;74.48;95863.44;5038687;28;20531;-68
2022/11/27 05:55:32;;;;;;;21.15;19.15;;;;;;;2.81;73.92;95872.97;5038697;28;20202;-68
2022/11/27 05:58:00;;;;;;;19.92;18.13;;;;;;;2.81;74.13;95879.22;5020972;28;20209;-68
2022/11/27 06:00:29;;;;;;;20.20;18.33;;;;;;;2.76;74.35;95875.72;5021056;28;20603;-67
2022/11/27 06:02:58;;;;;;;21.90;19.90;;;;;;;2.77;74.30;95877.38;5038345;28;20208;-68
2022/11/27 06:05:28;;;;;;;22.33;20.23;;;;;;;2.78;74.48;95885.25;5021062;28;20202;-68
2022/11/27 06:07:55;;;;;;;21.90;19.83;;;;;;;2.82;74.49;95888.22;5021236;28;20199;-68
2022/11/27 06:10:24;;;;;;;23.48;21.27;;;;;;;2.84;74.37;95889.56;5038483;28;20198;-68
2022/11/27 06:12:52;;;;;;;24.10;21.70;;;;;;;2.87;74.46;95890.91;5038198;28;20540;-68
2022/11/27 06:15:22;;;;;;;26.20;23.70;;;;;;;2.86;74.27;95881.09;5037129;28;20206;-68
2022/11/27 06:17:52;;;;;;;30.15;27.17;;;;;;;2.87;73.98;95889.00;5004596;28;20615;-68
2022/11/27 06:20:21;;;;;;;30.17;27.30;;;;;;;2.88;74.36;95887.91;5020839;28;20201;-68
2022/11/27 06:22:52;;;;;;;25.65;22.98;;;;;;;2.85;74.28;95898.53;5016766;28;20239;-68
2022/11/27 06:25:20;;;;;;;25.98;23.42;;;;;;;2.91;74.39;95896.59;5016507;28;20202;-68
2022/11/27 06:27:48;;;;;;;24.48;22.08;;;;;;;2.99;74.32;95896.00;5017325;28;20192;-68
2022/11/27 06:30:17;;;;;;;24.60;22.02;;;;;;;3.05;73.75;95890.22;5017227;28;20498;-68
2022/11/27 06:32:46;;;;;;;24.15;21.92;;;;;;;2.96;73.88;95881.03;5016361;28;20215;-68
2022/11/27 06:35:14;;;;;;;24.92;22.52;;;;;;;2.98;73.76;95891.63;5016432;28;20666;-68
2022/11/27 06:37:42;;;;;;;24.58;22.38;;;;;;;3.02;73.84;95893.50;5017013;28;20198;-68
2022/11/27 06:40:11;;;;;;;24.02;21.83;;;;;;;3.02;73.96;95895.44;5017291;28;20206;-68
2022/11/27 06:42:41;;;;;;;26.90;24.27;;;;;;;3.00;74.31;95895.69;5015780;28;20663;-68
2022/11/27 06:45:11;;;;;;;30.10;27.10;;;;;;;3.03;74.26;95897.06;5015810;28;20269;-68
2022/11/27 06:47:39;;;;;;;27.95;25.15;;;;;;;3.07;74.46;95898.09;5016185;28;20202;-68
2022/11/27 06:50:09;;;;;;;26.10;23.58;;;;;;;3.02;74.63;95889.97;5016320;28;20191;-68
2022/11/27 06:52:37;;;;;;;25.88;23.10;;;;;;;3.06;74.32;95897.28;5016644;28;20218;-68
2022/11/27 06:55:06;;;;;;;29.13;26.48;;;;;;;3.06;74.25;95897.28;5015897;28;20203;-70
2022/11/27 06:57:34;;;;;;;25.50;23.00;;;;;;;3.05;74.28;95892.94;5015852;28;20337;-68
2022/11/27 07:00:01;;;;;;;27.17;24.58;;;;;;;3.05;74.47;95901.13;5015870;28;20195;-68
2022/11/27 07:02:33;;;;;;;25.38;22.90;;;;;;;3.05;74.08;95897.56;5016600;28;20198;-68
2022/11/27 07:05:00;;;;;;;24.95;22.48;;;;;;;3.01;74.12;95899.22;5016032;28;20195;-68
2022/11/27 07:07:30;;;;;;;24.98;22.48;;;;;;;2.99;74.56;95896.81;5015850;28;20195;-68
2022/11/27 07:09:58;;;;;;;25.83;23.13;;;;;;;3.02;74.19;95896.25;5016505;28;20187;-68
2022/11/27 07:12:26;;;;;;;26.63;24.02;;;;;;;3.00;74.18;95889.44;5016459;28;20235;-68
2022/11/27 07:14:55;;;;;;;24.33;21.98;;;;;;;3.00;74.24;95892.16;5016413;28;20192;-68
2022/11/27 07:17:23;;;;;;;25.70;23.23;;;;;;;3.04;74.32;95885.03;5015655;28;20206;-68
2022/11/27 07:19:51;;;;;;;27.00;24.35;;;;;;;3.09;74.78;95893.19;5016355;28;20505;-68
2022/11/27 07:22:18;;;;;;;29.58;26.77;;;;;;;3.09;74.49;95888.56;4982938;28;1362620;-68
2022/11/27 07:24:48;;;;;;;27.55;24.75;;;;;;;3.13;74.63;95883.34;5036986;28;20191;-68
2022/11/27 07:27:16;;;;;;;27.75;25.05;;;;;;;3.13;74.16;95888.78;5019575;28;20268;-68
2022/11/27 07:29:44;;;;;;;29.65;26.73;;;;;;;3.16;74.10;95887.38;5019663;28;20202;-68
2022/11/27 07:32:12;;;;;;;29.25;26.35;;;;;;;3.19;74.18;95889.56;5019571;28;20650;-68
2022/11/27 07:34:39;;;;;;;29.45;26.60;;;;;;;3.19;74.24;95884.09;5019282;28;20296;-68
2022/11/27 07:37:07;;;;;;;29.52;26.60;;;;;;;3.21;74.21;95890.91;5019823;28;20271;-68
2022/11/27 07:39:34;;;;;;;28.05;25.45;;;;;;;3.25;74.68;95889.22;5036437;28;20598;-68
2022/11/27 07:42:02;;;;;;;28.17;25.48;;;;;;;3.24;73.76;95878.63;5036272;28;20553;-68
2022/11/27 07:44:30;;;;;;;27.13;24.52;;;;;;;3.27;73.53;95883.50;5036549;28;20611;-70
2022/11/27 07:46:59;;;;;;;28.52;25.73;;;;;;;3.28;74.05;95885.94;5038317;28;20520;-68
2022/11/27 07:49:27;;;;;;;26.55;23.65;;;;;;;3.29;73.81;95884.81;5020744;28;20191;-70
2022/11/27 07:51:56;;;;;;;28.15;25.25;;;;;;;3.31;74.09;95879.09;5021129;28;20206;-70
2022/11/27 07:54:24;;;;;;;29.58;26.48;;;;;;;3.31;73.20;95877.19;5021023;28;20210;-69
2022/11/27 07:56:53;;;;;;;29.67;26.48;;;;;;;3.34;73.13;95881.22;5038386;28;20198;-68
2022/11/27 07:59:23;;;;;;;29.10;25.88;;;;;;;3.39;73.23;95883.91;5038546;28;20215;-68
2022/11/27 08:01:51;;;;;;;31.27;26.58;;;;;;;3.41;72.97;95876.25;5021992;28;20202;-68
2022/11/27 08:04:23;;;;;;;29.55;26.35;;;;;;;3.45;72.71;95879.22;5021883;28;20537;-69
2022/11/27 08:06:52;;;;;;;30.92;27.40;;;;;;;3.44;72.82;95880.31;5037885;28;20175;-69
2022/11/27 08:09:20;;;;;;;32.33;28.67;;;;;;;3.48;72.92;95879.44;5039051;28;20194;-72
2022/11/27 08:11:49;;;;;;;32.17;27.83;;;;;;;3.51;72.64;95884.34;5021849;28;20194;-69
2022/11/27 08:14:18;;;;;;;33.53;29.92;;;;;;;3.53;72.83;95881.34;5038756;28;20198;-69
2022/11/27 08:16:48;;;;;;;35.92;31.83;;;;;;;3.53;72.48;95887.59;5021429;28;20292;-69
2022/11/27 08:19:16;;;;;;;41.78;37.58;;;;;;;3.51;72.30;95888.97;5039139;28;20205;-68
2022/11/27 08:21:44;;;;;;;42.10;37.80;;;;;;;3.50;72.54;95885.44;5038118;28;20253;-69
2022/11/27 08:24:12;;;;;;;42.90;38.53;;;;;;;3.54;72.49;95883.75;5038259;28;20203;-69
2022/11/27 08:26:41;;;;;;;41.30;37.15;;;;;;;3.53;72.37;95889.53;5020378;28;20210;-68
2022/11/27 08:29:11;;;;;;;38.53;34.72;;;;;;;3.59;72.30;95880.16;5037670;28;20195;-68
2022/11/27 08:31:39;;;;;;;37.75;33.75;;;;;;;3.58;71.69;95882.09;5020687;28;20202;-68
2022/11/27 08:34:08;;;;;;;40.83;36.95;;;;;;;3.54;72.40;95880.22;5037785;28;20206;-68
2022/11/27 08:36:36;;;;;;;42.35;38.20;;;;;;;3.54;72.32;95878.31;5020398;28;20205;-69
2022/11/27 08:39:04;;;;;;;47.53;42.80;;;;;;;3.54;72.02;95883.75;5020469;28;20209;-68
2022/11/27 08:41:32;;;;;;;48.42;43.72;;;;;;;3.51;71.96;95876.16;5020191;28;20205;-68
2022/11/27 08:43:59;;;;;;;49.13;44.10;;;;;;;3.56;71.90;95884.31;5037722;28;20213;-68
2022/11/27 08:46:27;;;;;;;47.75;43.05;;;;;;;3.59;71.92;95863.78;5037564;28;20193;-69
2022/11/27 08:48:55;;;;;;;43.75;39.55;;;;;;;3.66;72.13;95869.72;5020320;28;20202;-68
2022/11/27 08:51:25;;;;;;;41.75;37.85;;;;;;;3.67;71.79;95868.63;5021158;28;20195;-68
2022/11/27 08:53:53;;;;;;;42.13;38.03;;;;;;;3.66;71.29;95866.19;5036803;28;20210;-68
2022/11/27 08:56:22;;;;;;;41.17;36.97;;;;;;;3.68;71.83;95867.53;5020297;28;20210;-68
2022/11/27 08:58:50;;;;;;;41.45;37.22;;;;;;;3.74;71.96;95863.66;5020140;28;20202;-68
2022/11/27 09:01:19;;;;;;;40.78;36.70;;;;;;;3.73;71.52;95864.72;5020897;28;20201;-68
2022/11/27 09:03:46;;;;;;;45.00;40.60;;;;;;;3.76;71.01;95858.69;5020558;28;20205;-68
2022/11/27 09:06:15;;;;;;;44.47;39.97;;;;;;;3.83;71.10;95856.44;5020650;28;20642;-68
2022/11/27 09:08:44;;;;;;;48.50;43.95;;;;;;;3.93;71.50;95854.72;5020484;28;20209;-68
2022/11/27 09:11:11;;;;;;;51.75;46.35;;;;;;;3.94;70.59;95854.41;5037818;28;20591;-68
2022/11/27 09:13:40;;;;;;;49.38;44.60;;;;;;;3.96;70.95;95854.09;5020456;28;20224;-68
2022/11/27 09:16:10;;;;;;;56.08;50.50;;;;;;;4.06;70.78;95853.97;5021018;28;20197;-68
2022/11/27 09:18:37;;;;;;;57.95;52.05;;;;;;;4.14;70.93;95857.97;5038431;28;20248;-68
2022/11/27 09:21:06;;;;;;;56.17;50.30;;;;;;;4.24;70.70;95853.19;5037919;28;20242;-68
2022/11/27 09:23:34;;;;;;;51.35;46.50;;;;;;;4.29;70.39;95849.59;5037702;28;20206;-68
2022/11/27 09:26:03;;;;;;;50.97;45.78;;;;;;;4.29;70.03;95844.13;5036732;28;20259;-70
2022/11/27 09:28:30;;;;;;;50.42;45.35;;;;;;;4.31;70.13;95831.00;5020098;28;20194;-72
2022/11/27 09:30:57;;;;;;;46.70;42.17;;;;;;;4.36;69.62;95836.41;5020590;28;20194;-69
2022/11/27 09:33:25;;;;;;;45.47;40.88;;;;;;;4.42;69.82;95823.47;5037493;28;20220;-68
2022/11/27 09:35:52;;;;;;;48.35;43.55;;;;;;;4.43;69.74;95834.13;5020406;28;20217;-69
2022/11/27 09:38:19;;;;;;;48.13;43.35;;;;;;;4.46;69.50;95829.97;5020876;28;20198;-69
2022/11/27 09:40:49;;;;;;;46.33;41.85;;;;;;;4.48;69.09;95836.75;5037689;28;20194;-69
2022/11/27 09:43:19;;;;;;;44.15;39.70;;;;;;;4.43;69.10;95823.19;5036350;28;20243;-69
2022/11/27 09:45:53;;;;;;;43.53;39.50;;;;;;;4.47;69.99;95816.03;5036512;28;20194;-69
2022/11/27 09:48:27;;;;;;;42.00;37.90;;;;;;;4.55;69.21;95823.53;5037091;28;20205;-69
2022/11/27 09:50:56;;;;;;;42.17;38.08;;;;;;;4.61;69.34;95818.00;5038100;28;20183;-69
2022/11/27 09:53:29;;;;;;;36.15;32.53;;;;;;;4.70;69.23;95811.56;5016846;28;20222;-69
2022/11/27 09:56:02;;;;;;;34.90;31.58;;;;;;;4.70;68.99;95813.50;5019753;28;20208;-68
2022/11/27 09:58:37;;;;;;;35.72;32.25;;;;;;;4.76;69.53;95810.38;5004150;28;20202;-68
2022/11/27 10:01:17;;;;;;;33.50;30.30;;;;;;;4.82;69.16;95800.97;5020010;28;20212;-69
2022/11/27 10:03:48;;;;;;;33.72;30.48;;;;;;;4.86;68.86;95792.19;5036817;28;20209;-69
2022/11/27 10:06:24;;;;;;;33.90;30.60;;;;;;;4.93;69.09;95793.41;5037022;28;20208;-68
2022/11/27 10:09:06;;;;;;;31.75;28.75;;;;;;;5.01;69.12;95800.94;5037742;28;20614;-69
2022/11/27 10:11:40;;;;;;;36.28;32.72;;;;;;;5.04;68.34;95791.31;5022186;28;20190;-69
2022/11/27 10:14:33;;;;;;;34.00;30.85;;;;;;;4.96;68.26;95792.81;5023978;28;20217;-69
2022/11/27 10:17:03;;;;;;;35.40;31.95;;;;;;;4.95;68.27;95784.94;5024253;28;20206;-69
2022/11/27 10:19:36;;;;;;;34.20;30.90;;;;;;;4.98;68.45;95776.94;5023638;28;20205;-69
2022/11/27 10:22:05;;;;;;;33.72;30.60;;;;;;;5.09;68.19;95779.50;5019853;28;20238;-69
2022/11/27 10:24:37;;;;;;;33.67;30.48;;;;;;;5.10;68.15;95772.91;5020616;28;20206;-69
2022/11/27 10:27:13;;;;;;;33.70;30.40;;;;;;;5.17;68.05;95759.66;5020027;28;20608;-69
2022/11/27 10:29:44;;;;;;;34.28;30.85;;;;;;;5.13;68.08;95753.97;5036559;28;20522;-69
2022/11/27 10:32:13;;;;;;;33.50;30.15;;;;;;;5.21;68.08;95749.72;5020604;28;20270;-68
2022/11/27 10:34:42;;;;;;;32.80;29.50;;;;;;;5.29;68.05;95749.03;5019622;28;20222;-69
2022/11/27 10:37:16;;;;;;;37.00;33.40;;;;;;;5.37;67.73;95755.72;5020196;28;20199;-69
2022/11/27 10:39:45;;;;;;;33.47;30.25;;;;;;;5.43;67.67;95746.31;5019979;28;20207;-69
2022/11/27 10:42:16;;;;;;;32.97;29.77;;;;;;;5.46;67.85;95741.03;5020003;28;20681;-68
2022/11/27 10:44:47;;;;;;;34.33;30.90;;;;;;;5.51;68.00;95740.13;5019104;28;20191;-69
2022/11/27 10:47:15;;;;;;;34.63;31.23;;;;;;;5.55;67.52;95743.88;5020780;28;20183;-69
2022/11/27 10:49:43;;;;;;;34.10;30.70;;;;;;;5.53;67.51;95740.63;5020295;28;20207;-69
2022/11/27 10:52:14;;;;;;;32.28;29.15;;;;;;;5.52;67.44;95733.56;5020011;28;20199;-69
2022/11/27 10:54:43;;;;;;;32.38;29.17;;;;;;;5.50;66.96;95733.84;5019830;28;20211;-69
2022/11/27 10:57:23;;;;;;;32.97;29.67;;;;;;;5.41;67.92;95732.09;5020416;28;20265;-69
2022/11/27 11:00:03;;;;;;;33.25;29.95;;;;;;;5.43;67.79;95725.22;5019568;28;20608;-69
2022/11/27 11:02:34;;;;;;;32.50;29.30;;;;;;;5.46;67.98;95727.34;5019009;28;20222;-69
2022/11/27 11:05:16;;;;;;;32.45;29.35;;;;;;;5.51;67.07;95726.44;5019511;28;20202;-69
2022/11/27 11:07:42;;;;;;;32.40;29.30;;;;;;;5.57;66.03;95724.41;5019229;28;20203;-69
2022/11/27 11:10:25;;;;;;;30.55;27.67;;;;;;;5.57;65.97;95722.50;5020417;28;20569;-69
2022/11/27 11:13:09;;;;;;;33.33;30.08;;;;;;;5.63;65.33;95718.53;5020367;28;20604;-69
2022/11/27 11:15:47;;;;;;;31.77;28.48;;;;;;;5.66;65.65;95719.84;5019490;28;20694;-69
2022/11/27 11:18:17;;;;;;;31.73;28.63;;;;;;;5.70;64.98;95720.84;5020061;28;20519;-69
2022/11/27 11:20:47;;;;;;;34.50;30.95;;;;;;;5.75;65.04;95715.28;5020215;28;20532;-69
2022/11/27 11:23:20;;;;;;;34.05;30.08;;;;;;;5.78;65.17;95707.25;5021445;28;20199;-69
2022/11/27 11:25:50;;;;;;;31.48;28.20;;;;;;;5.89;64.61;95701.56;5021827;28;20190;-68
2022/11/27 11:28:19;;;;;;;31.48;28.50;;;;;;;5.92;64.32;95703.66;5022642;28;20199;-69
2022/11/27 11:30:54;;;;;;;33.30;30.15;;;;;;;5.97;64.46;95692.66;5039074;28;20206;-69
2022/11/27 11:33:22;;;;;;;25.83;23.23;;;;;;;5.96;63.89;95688.31;5021580;28;20519;-69
2022/11/27 11:35:52;;;;;;;24.67;22.17;;;;;;;5.97;64.04;95689.91;5037875;28;20207;-69
2022/11/27 11:38:29;;;;;;;22.83;20.67;;;;;;;5.94;63.38;95687.78;5037965;28;20245;-69